Tichnor, Arkansas
Current Conditions -  °F | °C
As of 6:35 AM on Tuesday 27 Jan 2015 (Local Time) from KSGT Reporting Station
Clear Clear  
Wind Chill: 35°   Ceiling: Unl
Heat Index: 41°   Visibility: 10mi
Dew Point: 34°   Wind: 9mph
Humidity: 76%   Direction: 310°NW
Pressure: 30.09"   Gusts: NA
Location:  34.14°N, 91.27°W
Report Text: KSGT 271235Z AUTO 31008KT 10SM CLR 05/01 A3009 RMK AO1
Loading
Personal Weather Stations






























Interactive Weather Map New forecast layout! Learn more

10-Day Weather Forecast

Advertisements
Track Severe Weather on mobile